Trim Flying Club goes to the Aran Islands

Learn to fly at Trim Flying Club

Rainfall Radar Now

Atlantic Charts Pressure - Today

Atlantic Charts Rainfall - Today

 
 

Atlantic Charts Pressure - Tomorrow

Sunrise Sunset

Click for Dublin, Ireland Forecast

Aviation WX Dublin EIDW

[source: ADDS]
METAR
EIDW 160700Z 14008KT 9999 FEW018 SCT140 BKN220 08/05 Q1023 NOSIG =
TAF
TAF EIDW 160500Z 1606/1706 16011KT 9999 FEW017 SCT040 BECMG 1609/1611 20012KT BECMG 1700/1702 25012KT TEMPO 1701/1704 5000 -DZ BR BKN010 =